sensor_id;sensor_type;location;lat;lon;timestamp;temperature;humidity
30520;DHT22;17300;50.374;8.006;2023-07-24T00:02:21;22.20;56.60
30520;DHT22;17300;50.374;8.006;2023-07-24T00:04:48;22.10;56.60
30520;DHT22;17300;50.374;8.006;2023-07-24T00:07:16;22.10;56.70
30520;DHT22;17300;50.374;8.006;2023-07-24T00:09:42;22.00;56.90
30520;DHT22;17300;50.374;8.006;2023-07-24T00:12:09;21.90;56.90
30520;DHT22;17300;50.374;8.006;2023-07-24T00:14:36;21.90;57.00
30520;DHT22;17300;50.374;8.006;2023-07-24T00:17:02;21.90;57.20
30520;DHT22;17300;50.374;8.006;2023-07-24T00:19:29;21.90;57.30
30520;DHT22;17300;50.374;8.006;2023-07-24T00:21:56;21.80;57.40
30520;DHT22;17300;50.374;8.006;2023-07-24T00:24:24;21.90;57.60
30520;DHT22;17300;50.374;8.006;2023-07-24T00:26:50;21.80;57.70
30520;DHT22;17300;50.374;8.006;2023-07-24T00:29:17;21.80;57.70
30520;DHT22;17300;50.374;8.006;2023-07-24T00:31:43;21.90;57.70
30520;DHT22;17300;50.374;8.006;2023-07-24T00:34:10;21.90;57.70
30520;DHT22;17300;50.374;8.006;2023-07-24T00:36:37;21.90;57.70
30520;DHT22;17300;50.374;8.006;2023-07-24T00:39:04;21.80;57.60
30520;DHT22;17300;50.374;8.006;2023-07-24T00:41:32;21.90;57.60
30520;DHT22;17300;50.374;8.006;2023-07-24T00:43:58;21.80;57.60
30520;DHT22;17300;50.374;8.006;2023-07-24T00:46:25;21.80;57.60
30520;DHT22;17300;50.374;8.006;2023-07-24T00:48:52;21.80;57.70
30520;DHT22;17300;50.374;8.006;2023-07-24T00:51:19;21.80;57.70
30520;DHT22;17300;50.374;8.006;2023-07-24T00:53:46;21.80;57.70
30520;DHT22;17300;50.374;8.006;2023-07-24T00:56:13;21.80;57.70
30520;DHT22;17300;50.374;8.006;2023-07-24T00:58:41;21.80;57.70
30520;DHT22;17300;50.374;8.006;2023-07-24T01:01:10;21.80;57.80
30520;DHT22;17300;50.374;8.006;2023-07-24T01:03:37;21.80;57.90
30520;DHT22;17300;50.374;8.006;2023-07-24T01:06:04;21.80;57.80
30520;DHT22;17300;50.374;8.006;2023-07-24T01:08:31;21.80;57.70
30520;DHT22;17300;50.374;8.006;2023-07-24T01:11:02;21.80;57.70
30520;DHT22;17300;50.374;8.006;2023-07-24T01:13:33;21.80;58.10
30520;DHT22;17300;50.374;8.006;2023-07-24T01:16:08;21.80;58.10
30520;DHT22;17300;50.374;8.006;2023-07-24T01:18:37;21.80;58.20
30520;DHT22;17300;50.374;8.006;2023-07-24T01:21:09;21.80;58.00
30520;DHT22;17300;50.374;8.006;2023-07-24T01:23:50;21.80;58.20
30520;DHT22;17300;50.374;8.006;2023-07-24T01:26:21;21.80;58.40
30520;DHT22;17300;50.374;8.006;2023-07-24T01:28:49;21.80;58.10
30520;DHT22;17300;50.374;8.006;2023-07-24T01:31:16;21.80;58.10
30520;DHT22;17300;50.374;8.006;2023-07-24T01:33:43;21.80;58.20
30520;DHT22;17300;50.374;8.006;2023-07-24T01:36:10;21.80;58.10
30520;DHT22;17300;50.374;8.006;2023-07-24T01:38:38;21.70;58.20
30520;DHT22;17300;50.374;8.006;2023-07-24T01:41:05;21.70;58.20
30520;DHT22;17300;50.374;8.006;2023-07-24T01:43:34;21.70;58.30
30520;DHT22;17300;50.374;8.006;2023-07-24T01:46:01;21.80;58.50
30520;DHT22;17300;50.374;8.006;2023-07-24T01:48:27;21.80;58.40
30520;DHT22;17300;50.374;8.006;2023-07-24T01:50:54;21.70;58.30
30520;DHT22;17300;50.374;8.006;2023-07-24T01:53:21;21.70;58.90
30520;DHT22;17300;50.374;8.006;2023-07-24T01:55:47;21.70;58.30
30520;DHT22;17300;50.374;8.006;2023-07-24T01:58:14;21.70;58.40
30520;DHT22;17300;50.374;8.006;2023-07-24T02:00:42;21.70;58.40
30520;DHT22;17300;50.374;8.006;2023-07-24T02:03:09;21.70;58.60
30520;DHT22;17300;50.374;8.006;2023-07-24T02:05:36;21.70;58.60
30520;DHT22;17300;50.374;8.006;2023-07-24T02:08:03;21.70;58.70
30520;DHT22;17300;50.374;8.006;2023-07-24T02:10:29;21.70;58.70
30520;DHT22;17300;50.374;8.006;2023-07-24T02:12:56;21.70;58.80
30520;DHT22;17300;50.374;8.006;2023-07-24T02:15:22;21.70;58.80
30520;DHT22;17300;50.374;8.006;2023-07-24T02:17:50;21.70;58.90
30520;DHT22;17300;50.374;8.006;2023-07-24T02:20:17;21.70;59.00
30520;DHT22;17300;50.374;8.006;2023-07-24T02:22:44;21.70;59.00
30520;DHT22;17300;50.374;8.006;2023-07-24T02:25:10;21.60;58.90
30520;DHT22;17300;50.374;8.006;2023-07-24T02:27:37;21.70;59.00
30520;DHT22;17300;50.374;8.006;2023-07-24T02:30:04;21.70;59.10
30520;DHT22;17300;50.374;8.006;2023-07-24T02:32:31;21.70;59.20
30520;DHT22;17300;50.374;8.006;2023-07-24T02:34:59;21.70;59.20
30520;DHT22;17300;50.374;8.006;2023-07-24T02:37:26;21.70;59.20
30520;DHT22;17300;50.374;8.006;2023-07-24T02:39:52;21.70;59.20
30520;DHT22;17300;50.374;8.006;2023-07-24T02:42:19;21.70;59.20
30520;DHT22;17300;50.374;8.006;2023-07-24T02:44:46;21.70;59.30
30520;DHT22;17300;50.374;8.006;2023-07-24T02:47:12;21.70;59.30
30520;DHT22;17300;50.374;8.006;2023-07-24T02:49:39;21.70;59.30
30520;DHT22;17300;50.374;8.006;2023-07-24T02:52:07;21.70;59.30
30520;DHT22;17300;50.374;8.006;2023-07-24T02:54:34;21.70;59.40
30520;DHT22;17300;50.374;8.006;2023-07-24T02:57:00;21.70;59.30
30520;DHT22;17300;50.374;8.006;2023-07-24T02:59:29;21.70;59.40
30520;DHT22;17300;50.374;8.006;2023-07-24T03:01:57;21.70;59.40
30520;DHT22;17300;50.374;8.006;2023-07-24T03:04:23;21.70;59.40
30520;DHT22;17300;50.374;8.006;2023-07-24T03:06:50;21.70;59.50
30520;DHT22;17300;50.374;8.006;2023-07-24T03:09:18;21.70;59.50
30520;DHT22;17300;50.374;8.006;2023-07-24T03:11:45;21.70;59.60
30520;DHT22;17300;50.374;8.006;2023-07-24T03:14:11;21.70;59.50
30520;DHT22;17300;50.374;8.006;2023-07-24T03:16:38;21.70;59.50
30520;DHT22;17300;50.374;8.006;2023-07-24T03:19:05;21.60;59.50
30520;DHT22;17300;50.374;8.006;2023-07-24T03:21:31;21.60;60.10
30520;DHT22;17300;50.374;8.006;2023-07-24T03:23:58;21.60;59.50
30520;DHT22;17300;50.374;8.006;2023-07-24T03:26:26;21.60;59.50
30520;DHT22;17300;50.374;8.006;2023-07-24T03:28:52;21.50;59.50
30520;DHT22;17300;50.374;8.006;2023-07-24T03:31:19;21.50;59.50
30520;DHT22;17300;50.374;8.006;2023-07-24T03:33:46;21.50;59.60
30520;DHT22;17300;50.374;8.006;2023-07-24T03:36:12;21.50;59.60
30520;DHT22;17300;50.374;8.006;2023-07-24T03:38:40;21.50;59.60
30520;DHT22;17300;50.374;8.006;2023-07-24T03:41:07;21.50;59.70
30520;DHT22;17300;50.374;8.006;2023-07-24T03:43:35;21.40;59.60
30520;DHT22;17300;50.374;8.006;2023-07-24T03:46:02;21.40;59.60
30520;DHT22;17300;50.374;8.006;2023-07-24T03:48:29;21.40;59.60
30520;DHT22;17300;50.374;8.006;2023-07-24T03:50:58;21.40;59.60
30520;DHT22;17300;50.374;8.006;2023-07-24T03:53:25;21.30;59.70
30520;DHT22;17300;50.374;8.006;2023-07-24T03:55:51;21.30;59.60
30520;DHT22;17300;50.374;8.006;2023-07-24T03:58:18;21.20;59.70
30520;DHT22;17300;50.374;8.006;2023-07-24T04:00:46;21.20;59.80
30520;DHT22;17300;50.374;8.006;2023-07-24T04:03:13;21.20;60.00
30520;DHT22;17300;50.374;8.006;2023-07-24T04:05:40;21.20;60.10
30520;DHT22;17300;50.374;8.006;2023-07-24T04:08:07;21.20;60.30
30520;DHT22;17300;50.374;8.006;2023-07-24T04:10:34;21.20;60.30
30520;DHT22;17300;50.374;8.006;2023-07-24T04:13:00;21.20;60.20
30520;DHT22;17300;50.374;8.006;2023-07-24T04:15:27;21.10;60.10
30520;DHT22;17300;50.374;8.006;2023-07-24T04:17:55;21.20;60.30
30520;DHT22;17300;50.374;8.006;2023-07-24T04:20:22;21.20;60.50
30520;DHT22;17300;50.374;8.006;2023-07-24T04:22:48;21.20;60.50
30520;DHT22;17300;50.374;8.006;2023-07-24T04:25:15;21.20;60.60
30520;DHT22;17300;50.374;8.006;2023-07-24T04:27:42;21.20;60.60
30520;DHT22;17300;50.374;8.006;2023-07-24T04:30:09;21.20;60.60
30520;DHT22;17300;50.374;8.006;2023-07-24T04:32:36;21.20;60.70
30520;DHT22;17300;50.374;8.006;2023-07-24T04:35:04;21.20;60.70
30520;DHT22;17300;50.374;8.006;2023-07-24T04:37:31;21.30;60.90
30520;DHT22;17300;50.374;8.006;2023-07-24T04:39:58;21.30;60.80
30520;DHT22;17300;50.374;8.006;2023-07-24T04:42:24;21.30;60.90
30520;DHT22;17300;50.374;8.006;2023-07-24T04:44:51;21.30;60.90
30520;DHT22;17300;50.374;8.006;2023-07-24T04:47:18;21.30;60.90
30520;DHT22;17300;50.374;8.006;2023-07-24T04:49:44;21.30;60.90
30520;DHT22;17300;50.374;8.006;2023-07-24T04:52:12;21.30;60.90
30520;DHT22;17300;50.374;8.006;2023-07-24T04:54:39;21.30;61.00
30520;DHT22;17300;50.374;8.006;2023-07-24T04:57:06;21.30;61.00
30520;DHT22;17300;50.374;8.006;2023-07-24T04:59:32;21.40;61.10
30520;DHT22;17300;50.374;8.006;2023-07-24T05:01:59;21.40;61.10
30520;DHT22;17300;50.374;8.006;2023-07-24T05:04:25;21.40;61.10
30520;DHT22;17300;50.374;8.006;2023-07-24T05:06:52;21.50;61.30
30520;DHT22;17300;50.374;8.006;2023-07-24T05:09:20;21.50;61.30
30520;DHT22;17300;50.374;8.006;2023-07-24T05:11:47;21.50;61.40
30520;DHT22;17300;50.374;8.006;2023-07-24T05:14:13;21.60;61.50
30520;DHT22;17300;50.374;8.006;2023-07-24T05:16:40;21.60;61.60
30520;DHT22;17300;50.374;8.006;2023-07-24T05:19:07;21.60;61.60
30520;DHT22;17300;50.374;8.006;2023-07-24T05:21:33;21.70;61.70
30520;DHT22;17300;50.374;8.006;2023-07-24T05:24:00;21.70;61.70
30520;DHT22;17300;50.374;8.006;2023-07-24T05:26:28;21.80;61.80
30520;DHT22;17300;50.374;8.006;2023-07-24T05:28:54;21.80;61.80
30520;DHT22;17300;50.374;8.006;2023-07-24T05:31:21;21.80;61.70
30520;DHT22;17300;50.374;8.006;2023-07-24T05:33:48;21.90;61.90
30520;DHT22;17300;50.374;8.006;2023-07-24T05:36:14;22.00;62.00
30520;DHT22;17300;50.374;8.006;2023-07-24T05:38:41;22.00;62.80
30520;DHT22;17300;50.374;8.006;2023-07-24T05:41:08;22.10;62.10
30520;DHT22;17300;50.374;8.006;2023-07-24T05:43:36;22.10;62.20
30520;DHT22;17300;50.374;8.006;2023-07-24T05:46:02;22.20;62.40
30520;DHT22;17300;50.374;8.006;2023-07-24T05:48:29;22.30;62.20
30520;DHT22;17300;50.374;8.006;2023-07-24T05:50:55;22.40;62.10
30520;DHT22;17300;50.374;8.006;2023-07-24T05:53:22;22.50;62.10
30520;DHT22;17300;50.374;8.006;2023-07-24T05:55:56;22.50;62.10
30520;DHT22;17300;50.374;8.006;2023-07-24T05:58:23;22.60;62.20
30520;DHT22;17300;50.374;8.006;2023-07-24T06:00:51;22.70;61.90
30520;DHT22;17300;50.374;8.006;2023-07-24T06:03:18;22.80;62.00
30520;DHT22;17300;50.374;8.006;2023-07-24T06:05:45;22.80;61.80
30520;DHT22;17300;50.374;8.006;2023-07-24T06:08:11;22.90;61.70
30520;DHT22;17300;50.374;8.006;2023-07-24T06:10:38;23.00;61.50
30520;DHT22;17300;50.374;8.006;2023-07-24T06:13:05;23.00;61.20
30520;DHT22;17300;50.374;8.006;2023-07-24T06:15:31;23.00;61.10
30520;DHT22;17300;50.374;8.006;2023-07-24T06:17:59;23.00;60.80
30520;DHT22;17300;50.374;8.006;2023-07-24T06:20:26;23.10;60.70
30520;DHT22;17300;50.374;8.006;2023-07-24T06:22:52;23.10;60.50
30520;DHT22;17300;50.374;8.006;2023-07-24T06:25:19;23.10;60.50
30520;DHT22;17300;50.374;8.006;2023-07-24T06:27:46;23.10;60.50
30520;DHT22;17300;50.374;8.006;2023-07-24T06:30:12;23.10;60.50
30520;DHT22;17300;50.374;8.006;2023-07-24T06:32:39;23.10;60.50
30520;DHT22;17300;50.374;8.006;2023-07-24T06:35:07;23.10;60.50
30520;DHT22;17300;50.374;8.006;2023-07-24T06:37:34;23.10;60.50
30520;DHT22;17300;50.374;8.006;2023-07-24T06:40:01;23.20;60.50
30520;DHT22;17300;50.374;8.006;2023-07-24T06:42:28;23.10;60.40
30520;DHT22;17300;50.374;8.006;2023-07-24T06:44:54;23.10;60.40
30520;DHT22;17300;50.374;8.006;2023-07-24T06:47:21;23.10;60.40
30520;DHT22;17300;50.374;8.006;2023-07-24T06:49:47;23.10;60.50
30520;DHT22;17300;50.374;8.006;2023-07-24T06:52:15;23.10;60.60
30520;DHT22;17300;50.374;8.006;2023-07-24T06:54:42;23.10;60.80
30520;DHT22;17300;50.374;8.006;2023-07-24T06:57:09;23.20;60.90
30520;DHT22;17300;50.374;8.006;2023-07-24T06:59:35;23.20;60.90
30520;DHT22;17300;50.374;8.006;2023-07-24T07:02:02;23.20;60.80
30520;DHT22;17300;50.374;8.006;2023-07-24T07:04:29;23.20;60.80
30520;DHT22;17300;50.374;8.006;2023-07-24T07:06:55;23.20;61.00
30520;DHT22;17300;50.374;8.006;2023-07-24T07:09:23;23.20;61.10
30520;DHT22;17300;50.374;8.006;2023-07-24T07:11:50;23.20;61.30
30520;DHT22;17300;50.374;8.006;2023-07-24T07:14:17;23.30;61.60
30520;DHT22;17300;50.374;8.006;2023-07-24T07:16:43;23.30;61.90
30520;DHT22;17300;50.374;8.006;2023-07-24T07:19:13;23.40;62.20
30520;DHT22;17300;50.374;8.006;2023-07-24T07:21:39;23.50;62.30
30520;DHT22;17300;50.374;8.006;2023-07-24T07:24:06;23.50;62.20
30520;DHT22;17300;50.374;8.006;2023-07-24T07:26:34;23.60;62.10
30520;DHT22;17300;50.374;8.006;2023-07-24T07:29:00;23.70;62.00
30520;DHT22;17300;50.374;8.006;2023-07-24T07:31:27;23.80;61.90
30520;DHT22;17300;50.374;8.006;2023-07-24T07:33:54;23.80;61.90
30520;DHT22;17300;50.374;8.006;2023-07-24T07:36:20;23.80;61.70
30520;DHT22;17300;50.374;8.006;2023-07-24T07:38:48;23.90;61.80
30520;DHT22;17300;50.374;8.006;2023-07-24T07:41:14;23.90;61.90
30520;DHT22;17300;50.374;8.006;2023-07-24T07:43:42;24.00;62.10
30520;DHT22;17300;50.374;8.006;2023-07-24T07:46:09;24.10;62.40
30520;DHT22;17300;50.374;8.006;2023-07-24T07:48:36;24.10;62.30
30520;DHT22;17300;50.374;8.006;2023-07-24T07:51:03;24.20;62.30
30520;DHT22;17300;50.374;8.006;2023-07-24T07:53:29;24.30;62.00
30520;DHT22;17300;50.374;8.006;2023-07-24T07:55:57;24.30;61.80
30520;DHT22;17300;50.374;8.006;2023-07-24T07:58:25;24.30;61.60
30520;DHT22;17300;50.374;8.006;2023-07-24T08:00:53;24.30;61.50
30520;DHT22;17300;50.374;8.006;2023-07-24T08:03:19;24.30;61.50
30520;DHT22;17300;50.374;8.006;2023-07-24T08:05:46;24.40;61.60
30520;DHT22;17300;50.374;8.006;2023-07-24T08:08:13;24.40;61.60
30520;DHT22;17300;50.374;8.006;2023-07-24T08:10:40;24.50;61.80
30520;DHT22;17300;50.374;8.006;2023-07-24T08:13:07;24.50;61.80
30520;DHT22;17300;50.374;8.006;2023-07-24T08:15:34;24.50;61.70
30520;DHT22;17300;50.374;8.006;2023-07-24T08:18:04;24.50;61.40
30520;DHT22;17300;50.374;8.006;2023-07-24T08:20:32;24.60;60.70
30520;DHT22;17300;50.374;8.006;2023-07-24T08:23:01;24.60;59.90
30520;DHT22;17300;50.374;8.006;2023-07-24T08:25:28;24.70;59.90
30520;DHT22;17300;50.374;8.006;2023-07-24T08:27:54;24.70;59.70
30520;DHT22;17300;50.374;8.006;2023-07-24T08:30:21;24.70;59.60
30520;DHT22;17300;50.374;8.006;2023-07-24T08:32:48;24.90;59.40
30520;DHT22;17300;50.374;8.006;2023-07-24T08:35:17;24.90;59.20
30520;DHT22;17300;50.374;8.006;2023-07-24T08:37:43;25.00;59.10
30520;DHT22;17300;50.374;8.006;2023-07-24T08:40:11;25.10;58.80
30520;DHT22;17300;50.374;8.006;2023-07-24T08:42:39;25.20;58.10
30520;DHT22;17300;50.374;8.006;2023-07-24T08:45:11;25.30;57.80
30520;DHT22;17300;50.374;8.006;2023-07-24T08:47:40;25.50;57.20
30520;DHT22;17300;50.374;8.006;2023-07-24T08:50:09;25.60;57.10
30520;DHT22;17300;50.374;8.006;2023-07-24T08:52:38;25.70;56.90
30520;DHT22;17300;50.374;8.006;2023-07-24T08:55:06;25.80;56.50
30520;DHT22;17300;50.374;8.006;2023-07-24T08:57:33;26.00;56.50
30520;DHT22;17300;50.374;8.006;2023-07-24T08:59:59;26.20;56.20
30520;DHT22;17300;50.374;8.006;2023-07-24T09:02:30;26.30;55.60
30520;DHT22;17300;50.374;8.006;2023-07-24T09:04:56;26.40;55.00
30520;DHT22;17300;50.374;8.006;2023-07-24T09:07:23;26.60;54.90
30520;DHT22;17300;50.374;8.006;2023-07-24T09:09:51;26.70;54.60
30520;DHT22;17300;50.374;8.006;2023-07-24T09:12:18;26.80;54.10
30520;DHT22;17300;50.374;8.006;2023-07-24T09:14:45;26.90;54.50
30520;DHT22;17300;50.374;8.006;2023-07-24T09:17:12;27.10;54.50
30520;DHT22;17300;50.374;8.006;2023-07-24T09:19:40;27.20;54.80
30520;DHT22;17300;50.374;8.006;2023-07-24T09:22:10;27.50;55.30
30520;DHT22;17300;50.374;8.006;2023-07-24T09:24:37;27.90;56.50
30520;DHT22;17300;50.374;8.006;2023-07-24T09:27:06;28.50;58.00
30520;DHT22;17300;50.374;8.006;2023-07-24T09:29:34;29.30;59.30
30520;DHT22;17300;50.374;8.006;2023-07-24T09:32:01;30.20;60.40
30520;DHT22;17300;50.374;8.006;2023-07-24T09:34:27;31.40;60.30
30520;DHT22;17300;50.374;8.006;2023-07-24T09:36:54;32.70;59.50
30520;DHT22;17300;50.374;8.006;2023-07-24T09:39:24;34.00;57.90
30520;DHT22;17300;50.374;8.006;2023-07-24T09:41:51;35.40;54.80
30520;DHT22;17300;50.374;8.006;2023-07-24T09:44:19;36.60;52.60
30520;DHT22;17300;50.374;8.006;2023-07-24T09:46:46;37.60;49.50
30520;DHT22;17300;50.374;8.006;2023-07-24T09:49:13;38.40;48.00
30520;DHT22;17300;50.374;8.006;2023-07-24T09:51:42;39.30;47.00
30520;DHT22;17300;50.374;8.006;2023-07-24T09:54:16;40.30;44.60
30520;DHT22;17300;50.374;8.006;2023-07-24T09:56:44;41.10;42.40
30520;DHT22;17300;50.374;8.006;2023-07-24T09:59:13;41.90;42.30
30520;DHT22;17300;50.374;8.006;2023-07-24T10:01:41;42.70;40.50
30520;DHT22;17300;50.374;8.006;2023-07-24T10:04:09;43.50;39.40
30520;DHT22;17300;50.374;8.006;2023-07-24T10:06:36;44.20;38.00
30520;DHT22;17300;50.374;8.006;2023-07-24T10:09:03;44.90;37.20
30520;DHT22;17300;50.374;8.006;2023-07-24T10:11:30;45.60;35.90
30520;DHT22;17300;50.374;8.006;2023-07-24T10:13:57;46.40;34.20
30520;DHT22;17300;50.374;8.006;2023-07-24T10:16:24;47.00;32.90
30520;DHT22;17300;50.374;8.006;2023-07-24T10:18:52;47.60;31.70
30520;DHT22;17300;50.374;8.006;2023-07-24T10:21:26;48.10;30.70
30520;DHT22;17300;50.374;8.006;2023-07-24T10:23:53;48.50;29.00
30520;DHT22;17300;50.374;8.006;2023-07-24T10:26:24;48.60;29.20
30520;DHT22;17300;50.374;8.006;2023-07-24T10:28:51;49.00;28.50
30520;DHT22;17300;50.374;8.006;2023-07-24T10:31:22;49.20;28.50
30520;DHT22;17300;50.374;8.006;2023-07-24T10:33:50;49.50;27.70
30520;DHT22;17300;50.374;8.006;2023-07-24T10:36:19;49.50;27.10
30520;DHT22;17300;50.374;8.006;2023-07-24T10:38:52;49.40;26.30
30520;DHT22;17300;50.374;8.006;2023-07-24T10:41:19;49.20;25.80
30520;DHT22;17300;50.374;8.006;2023-07-24T10:43:48;49.00;25.70
30520;DHT22;17300;50.374;8.006;2023-07-24T10:46:18;48.50;25.00
30520;DHT22;17300;50.374;8.006;2023-07-24T10:48:45;47.80;24.60
30520;DHT22;17300;50.374;8.006;2023-07-24T10:51:13;47.00;24.40
30520;DHT22;17300;50.374;8.006;2023-07-24T10:53:44;45.90;24.50
30520;DHT22;17300;50.374;8.006;2023-07-24T10:56:11;44.80;24.70
30520;DHT22;17300;50.374;8.006;2023-07-24T10:58:38;43.80;25.00
30520;DHT22;17300;50.374;8.006;2023-07-24T11:01:05;42.60;25.40
30520;DHT22;17300;50.374;8.006;2023-07-24T11:03:34;41.70;26.00
30520;DHT22;17300;50.374;8.006;2023-07-24T11:06:02;40.70;26.40
30520;DHT22;17300;50.374;8.006;2023-07-24T11:08:29;39.80;26.90
30520;DHT22;17300;50.374;8.006;2023-07-24T11:10:58;39.00;27.40
30520;DHT22;17300;50.374;8.006;2023-07-24T11:13:27;38.30;27.70
30520;DHT22;17300;50.374;8.006;2023-07-24T11:15:55;37.70;28.30
30520;DHT22;17300;50.374;8.006;2023-07-24T11:18:22;37.00;28.50
30520;DHT22;17300;50.374;8.006;2023-07-24T11:20:53;36.50;29.00
30520;DHT22;17300;50.374;8.006;2023-07-24T11:23:20;36.10;29.70
30520;DHT22;17300;50.374;8.006;2023-07-24T11:25:50;35.80;30.30
30520;DHT22;17300;50.374;8.006;2023-07-24T11:28:18;35.70;31.60
30520;DHT22;17300;50.374;8.006;2023-07-24T11:30:45;35.80;33.10
30520;DHT22;17300;50.374;8.006;2023-07-24T11:33:14;35.90;32.60
30520;DHT22;17300;50.374;8.006;2023-07-24T11:35:41;36.20;32.20
30520;DHT22;17300;50.374;8.006;2023-07-24T11:38:09;36.50;31.80
30520;DHT22;17300;50.374;8.006;2023-07-24T11:40:37;36.70;31.50
30520;DHT22;17300;50.374;8.006;2023-07-24T11:43:04;36.80;30.50
30520;DHT22;17300;50.374;8.006;2023-07-24T11:45:41;36.80;30.20
30520;DHT22;17300;50.374;8.006;2023-07-24T11:48:09;36.60;30.00
30520;DHT22;17300;50.374;8.006;2023-07-24T11:50:42;36.50;30.00
30520;DHT22;17300;50.374;8.006;2023-07-24T11:53:19;36.10;30.00
30520;DHT22;17300;50.374;8.006;2023-07-24T11:55:47;35.80;30.00
30520;DHT22;17300;50.374;8.006;2023-07-24T11:58:15;35.60;30.20
30520;DHT22;17300;50.374;8.006;2023-07-24T12:00:43;35.30;30.60
30520;DHT22;17300;50.374;8.006;2023-07-24T12:03:10;35.00;31.00
30520;DHT22;17300;50.374;8.006;2023-07-24T12:05:40;34.70;31.30
30520;DHT22;17300;50.374;8.006;2023-07-24T12:08:07;34.50;31.40
30520;DHT22;17300;50.374;8.006;2023-07-24T12:10:36;34.40;31.60
30520;DHT22;17300;50.374;8.006;2023-07-24T12:13:04;34.20;31.80
30520;DHT22;17300;50.374;8.006;2023-07-24T12:15:30;34.10;32.10
30520;DHT22;17300;50.374;8.006;2023-07-24T12:17:59;34.00;32.20
30520;DHT22;17300;50.374;8.006;2023-07-24T12:20:26;33.90;32.40
30520;DHT22;17300;50.374;8.006;2023-07-24T12:22:53;33.90;32.60
30520;DHT22;17300;50.374;8.006;2023-07-24T12:25:20;33.80;32.60
30520;DHT22;17300;50.374;8.006;2023-07-24T12:27:47;33.80;32.70
30520;DHT22;17300;50.374;8.006;2023-07-24T12:30:14;33.70;32.70
30520;DHT22;17300;50.374;8.006;2023-07-24T12:32:41;33.60;33.70
30520;DHT22;17300;50.374;8.006;2023-07-24T12:35:09;33.40;33.40
30520;DHT22;17300;50.374;8.006;2023-07-24T12:37:36;33.20;33.80
30520;DHT22;17300;50.374;8.006;2023-07-24T12:40:05;33.10;34.30
30520;DHT22;17300;50.374;8.006;2023-07-24T12:42:32;33.00;34.60
30520;DHT22;17300;50.374;8.006;2023-07-24T12:44:59;32.90;34.60
30520;DHT22;17300;50.374;8.006;2023-07-24T12:47:28;32.80;34.50
30520;DHT22;17300;50.374;8.006;2023-07-24T12:49:54;32.70;34.40
30520;DHT22;17300;50.374;8.006;2023-07-24T12:52:24;32.70;34.50
30520;DHT22;17300;50.374;8.006;2023-07-24T12:54:51;32.60;34.60
30520;DHT22;17300;50.374;8.006;2023-07-24T12:57:18;32.60;34.60
30520;DHT22;17300;50.374;8.006;2023-07-24T12:59:44;32.50;34.50
30520;DHT22;17300;50.374;8.006;2023-07-24T13:02:11;32.50;34.70
30520;DHT22;17300;50.374;8.006;2023-07-24T13:04:38;32.40;35.60
30520;DHT22;17300;50.374;8.006;2023-07-24T13:07:05;32.30;36.20
30520;DHT22;17300;50.374;8.006;2023-07-24T13:09:33;32.10;36.30
30520;DHT22;17300;50.374;8.006;2023-07-24T13:11:59;31.90;37.80
30520;DHT22;17300;50.374;8.006;2023-07-24T13:14:26;31.70;38.40
30520;DHT22;17300;50.374;8.006;2023-07-24T13:16:53;31.50;39.10
30520;DHT22;17300;50.374;8.006;2023-07-24T13:19:19;31.40;39.60
30520;DHT22;17300;50.374;8.006;2023-07-24T13:21:46;31.20;40.00
30520;DHT22;17300;50.374;8.006;2023-07-24T13:24:13;31.10;40.30
30520;DHT22;17300;50.374;8.006;2023-07-24T13:26:41;31.00;40.70
30520;DHT22;17300;50.374;8.006;2023-07-24T13:29:08;31.00;41.20
30520;DHT22;17300;50.374;8.006;2023-07-24T13:31:34;31.00;41.20
30520;DHT22;17300;50.374;8.006;2023-07-24T13:34:02;30.90;41.40
30520;DHT22;17300;50.374;8.006;2023-07-24T13:36:29;30.90;41.50
30520;DHT22;17300;50.374;8.006;2023-07-24T13:38:55;30.90;41.30
30520;DHT22;17300;50.374;8.006;2023-07-24T13:41:22;31.00;41.40
30520;DHT22;17300;50.374;8.006;2023-07-24T13:43:50;31.00;41.60
30520;DHT22;17300;50.374;8.006;2023-07-24T13:46:17;31.10;42.00
30520;DHT22;17300;50.374;8.006;2023-07-24T13:48:44;31.10;41.90
30520;DHT22;17300;50.374;8.006;2023-07-24T13:51:10;31.20;41.50
30520;DHT22;17300;50.374;8.006;2023-07-24T13:53:37;31.20;41.60
30520;DHT22;17300;50.374;8.006;2023-07-24T13:56:04;31.30;41.30
30520;DHT22;17300;50.374;8.006;2023-07-24T13:58:31;31.30;41.00
30520;DHT22;17300;50.374;8.006;2023-07-24T14:00:59;31.30;41.40
30520;DHT22;17300;50.374;8.006;2023-07-24T14:03:26;31.30;41.50
30520;DHT22;17300;50.374;8.006;2023-07-24T14:05:55;31.40;41.00
30520;DHT22;17300;50.374;8.006;2023-07-24T14:08:22;31.40;40.40
30520;DHT22;17300;50.374;8.006;2023-07-24T14:10:48;31.40;40.00
30520;DHT22;17300;50.374;8.006;2023-07-24T14:13:15;31.40;40.00
30520;DHT22;17300;50.374;8.006;2023-07-24T14:15:42;31.40;40.10
30520;DHT22;17300;50.374;8.006;2023-07-24T14:18:10;31.30;40.00
30520;DHT22;17300;50.374;8.006;2023-07-24T14:20:36;31.30;40.00
30520;DHT22;17300;50.374;8.006;2023-07-24T14:23:05;31.20;39.60
30520;DHT22;17300;50.374;8.006;2023-07-24T14:25:32;31.10;39.50
30520;DHT22;17300;50.374;8.006;2023-07-24T14:27:59;31.00;39.70
30520;DHT22;17300;50.374;8.006;2023-07-24T14:30:25;31.00;39.60
30520;DHT22;17300;50.374;8.006;2023-07-24T14:32:52;30.90;39.70
30520;DHT22;17300;50.374;8.006;2023-07-24T14:35:20;30.80;39.60
30520;DHT22;17300;50.374;8.006;2023-07-24T14:37:47;30.70;39.60
30520;DHT22;17300;50.374;8.006;2023-07-24T14:40:13;30.70;39.60
30520;DHT22;17300;50.374;8.006;2023-07-24T14:42:40;30.60;39.50
30520;DHT22;17300;50.374;8.006;2023-07-24T14:45:08;30.50;39.50
30520;DHT22;17300;50.374;8.006;2023-07-24T14:47:34;30.40;39.50
30520;DHT22;17300;50.374;8.006;2023-07-24T14:50:01;30.30;39.30
30520;DHT22;17300;50.374;8.006;2023-07-24T14:52:29;30.20;39.40
30520;DHT22;17300;50.374;8.006;2023-07-24T14:54:56;30.10;39.50
30520;DHT22;17300;50.374;8.006;2023-07-24T14:57:23;30.00;39.50
30520;DHT22;17300;50.374;8.006;2023-07-24T14:59:50;29.90;39.60
30520;DHT22;17300;50.374;8.006;2023-07-24T15:02:17;29.80;39.60
30520;DHT22;17300;50.374;8.006;2023-07-24T15:04:44;29.70;39.50
30520;DHT22;17300;50.374;8.006;2023-07-24T15:07:10;29.60;39.60
30520;DHT22;17300;50.374;8.006;2023-07-24T15:09:38;29.50;39.70
30520;DHT22;17300;50.374;8.006;2023-07-24T15:12:05;29.40;39.70
30520;DHT22;17300;50.374;8.006;2023-07-24T15:14:32;29.30;39.80
30520;DHT22;17300;50.374;8.006;2023-07-24T15:16:58;29.20;39.80
30520;DHT22;17300;50.374;8.006;2023-07-24T15:19:25;29.10;39.70
30520;DHT22;17300;50.374;8.006;2023-07-24T15:21:52;29.00;39.60
30520;DHT22;17300;50.374;8.006;2023-07-24T15:24:18;29.00;39.60
30520;DHT22;17300;50.374;8.006;2023-07-24T15:26:46;28.90;39.60
30520;DHT22;17300;50.374;8.006;2023-07-24T15:29:13;28.90;39.90
30520;DHT22;17300;50.374;8.006;2023-07-24T15:31:40;28.80;39.90